sensor_id;sensor_type;location;lat;lon;timestamp;noise_LAeq;noise_LA_min;noise_LA_max;noise_LA01;noise_LA95
66463;Laerm;56827;52.178;4.500;2023-09-19T00:00:01;47.22;44.27;50.39;;
66463;Laerm;56827;52.178;4.500;2023-09-19T00:00:11;46.31;40.11;51.06;;
66463;Laerm;56827;52.178;4.500;2023-09-19T00:00:23;51.74;46.51;53.80;;
66463;Laerm;56827;52.178;4.500;2023-09-19T00:00:35;48.16;44.63;52.28;;
66463;Laerm;56827;52.178;4.500;2023-09-19T00:00:46;46.56;44.38;48.48;;
66463;Laerm;56827;52.178;4.500;2023-09-19T00:00:59;44.15;40.66;47.63;;
66463;Laerm;56827;52.178;4.500;2023-09-19T00:01:10;48.34;44.37;52.11;;
66463;Laerm;56827;52.178;4.500;2023-09-19T00:01:22;48.78;43.22;51.51;;
66463;Laerm;56827;52.178;4.500;2023-09-19T00:01:32;50.19;48.13;52.25;;
66463;Laerm;56827;52.178;4.500;2023-09-19T00:01:43;50.32;47.94;53.04;;
66463;Laerm;56827;52.178;4.500;2023-09-19T00:01:56;45.17;41.08;49.37;;
66463;Laerm;56827;52.178;4.500;2023-09-19T00:02:07;46.36;43.48;48.62;;
66463;Laerm;56827;52.178;4.500;2023-09-19T00:02:18;50.19;46.31;52.05;;
66463;Laerm;56827;52.178;4.500;2023-09-19T00:02:29;50.29;45.81;52.84;;
66463;Laerm;56827;52.178;4.500;2023-09-19T00:02:39;51.94;49.97;54.30;;
66463;Laerm;56827;52.178;4.500;2023-09-19T00:02:56;51.69;49.74;53.38;;
66463;Laerm;56827;52.178;4.500;2023-09-19T00:03:07;56.71;51.01;59.81;;
66463;Laerm;56827;52.178;4.500;2023-09-19T00:03:17;53.49;49.17;57.20;;
66463;Laerm;56827;52.178;4.500;2023-09-19T00:03:27;51.19;46.69;54.96;;
66463;Laerm;56827;52.178;4.500;2023-09-19T00:03:38;49.03;46.70;51.51;;
66463;Laerm;56827;52.178;4.500;2023-09-19T00:03:48;52.64;48.74;56.31;;
66463;Laerm;56827;52.178;4.500;2023-09-19T00:03:59;52.87;47.19;56.60;;
66463;Laerm;56827;52.178;4.500;2023-09-19T00:04:10;49.23;45.42;51.10;;
66463;Laerm;56827;52.178;4.500;2023-09-19T00:04:22;51.61;45.80;54.18;;
66463;Laerm;56827;52.178;4.500;2023-09-19T00:04:38;47.35;42.74;51.65;;
66463;Laerm;56827;52.178;4.500;2023-09-19T00:04:49;51.12;47.97;53.18;;
66463;Laerm;56827;52.178;4.500;2023-09-19T00:05:00;45.92;41.01;48.70;;
66463;Laerm;56827;52.178;4.500;2023-09-19T00:05:14;50.97;40.56;54.52;;
66463;Laerm;56827;52.178;4.500;2023-09-19T00:05:28;46.93;43.20;49.41;;
66463;Laerm;56827;52.178;4.500;2023-09-19T00:05:39;50.56;47.85;52.67;;
66463;Laerm;56827;52.178;4.500;2023-09-19T00:05:49;47.08;43.79;49.77;;
66463;Laerm;56827;52.178;4.500;2023-09-19T00:06:00;52.72;47.01;57.45;;
66463;Laerm;56827;52.178;4.500;2023-09-19T00:06:11;43.74;37.74;49.49;;
66463;Laerm;56827;52.178;4.500;2023-09-19T00:06:23;46.41;39.27;51.76;;
66463;Laerm;56827;52.178;4.500;2023-09-19T00:06:38;50.96;49.55;52.74;;
66463;Laerm;56827;52.178;4.500;2023-09-19T00:06:49;44.33;37.38;50.58;;
66463;Laerm;56827;52.178;4.500;2023-09-19T00:07:00;42.50;34.66;48.35;;
66463;Laerm;56827;52.178;4.500;2023-09-19T00:07:12;43.61;36.82;48.04;;
66463;Laerm;56827;52.178;4.500;2023-09-19T00:07:23;38.44;36.24;41.84;;
66463;Laerm;56827;52.178;4.500;2023-09-19T00:07:34;45.18;38.65;49.96;;
66463;Laerm;56827;52.178;4.500;2023-09-19T00:07:46;42.89;38.77;46.80;;
66463;Laerm;56827;52.178;4.500;2023-09-19T00:07:57;53.42;46.29;56.97;;
66463;Laerm;56827;52.178;4.500;2023-09-19T00:08:11;56.78;54.09;59.38;;
66463;Laerm;56827;52.178;4.500;2023-09-19T00:08:23;53.13;46.43;60.64;;
66463;Laerm;56827;52.178;4.500;2023-09-19T00:08:34;49.04;45.91;51.88;;
66463;Laerm;56827;52.178;4.500;2023-09-19T00:08:44;55.38;49.84;58.12;;
66463;Laerm;56827;52.178;4.500;2023-09-19T00:08:54;52.34;49.25;54.89;;
66463;Laerm;56827;52.178;4.500;2023-09-19T00:09:05;54.30;51.12;57.74;;
66463;Laerm;56827;52.178;4.500;2023-09-19T00:09:15;60.48;54.10;64.05;;
66463;Laerm;56827;52.178;4.500;2023-09-19T00:09:25;54.83;51.80;56.50;;
66463;Laerm;56827;52.178;4.500;2023-09-19T00:09:38;55.14;49.92;57.91;;
66463;Laerm;56827;52.178;4.500;2023-09-19T00:09:48;50.90;48.11;52.86;;
66463;Laerm;56827;52.178;4.500;2023-09-19T00:09:58;49.91;45.49;52.72;;
66463;Laerm;56827;52.178;4.500;2023-09-19T00:10:08;48.18;42.37;53.30;;
66463;Laerm;56827;52.178;4.500;2023-09-19T00:10:22;55.79;49.78;59.64;;
66463;Laerm;56827;52.178;4.500;2023-09-19T00:10:34;54.30;52.65;56.16;;
66463;Laerm;56827;52.178;4.500;2023-09-19T00:10:49;54.00;51.15;56.69;;
66463;Laerm;56827;52.178;4.500;2023-09-19T00:11:00;52.08;49.52;54.27;;
66463;Laerm;56827;52.178;4.500;2023-09-19T00:11:15;49.90;45.26;53.73;;
66463;Laerm;56827;52.178;4.500;2023-09-19T00:11:26;50.41;47.86;52.11;;
66463;Laerm;56827;52.178;4.500;2023-09-19T00:11:37;51.07;48.92;52.44;;
66463;Laerm;56827;52.178;4.500;2023-09-19T00:11:49;48.96;46.05;51.34;;
66463;Laerm;56827;52.178;4.500;2023-09-19T00:11:59;53.77;50.65;57.01;;
66463;Laerm;56827;52.178;4.500;2023-09-19T00:12:10;55.45;50.39;57.61;;
66463;Laerm;56827;52.178;4.500;2023-09-19T00:12:20;53.73;50.81;55.41;;
66463;Laerm;56827;52.178;4.500;2023-09-19T00:12:30;48.96;45.25;52.61;;
66463;Laerm;56827;52.178;4.500;2023-09-19T00:12:44;44.04;39.06;49.65;;
66463;Laerm;56827;52.178;4.500;2023-09-19T00:12:54;50.20;45.49;52.96;;
66463;Laerm;56827;52.178;4.500;2023-09-19T00:13:09;46.75;43.25;50.67;;
66463;Laerm;56827;52.178;4.500;2023-09-19T00:13:23;46.31;43.06;49.27;;
66463;Laerm;56827;52.178;4.500;2023-09-19T00:13:34;47.36;43.99;52.92;;
66463;Laerm;56827;52.178;4.500;2023-09-19T00:13:49;49.80;47.28;52.79;;
66463;Laerm;56827;52.178;4.500;2023-09-19T00:14:00;52.01;49.10;55.84;;
66463;Laerm;56827;52.178;4.500;2023-09-19T00:14:10;53.82;49.82;56.68;;
66463;Laerm;56827;52.178;4.500;2023-09-19T00:14:24;52.71;44.50;56.93;;
66463;Laerm;56827;52.178;4.500;2023-09-19T00:14:35;45.91;44.46;47.53;;
66463;Laerm;56827;52.178;4.500;2023-09-19T00:14:45;42.98;40.51;46.65;;
66463;Laerm;56827;52.178;4.500;2023-09-19T00:14:56;44.04;40.21;47.27;;
66463;Laerm;56827;52.178;4.500;2023-09-19T00:15:07;39.45;37.43;41.44;;
66463;Laerm;56827;52.178;4.500;2023-09-19T00:15:17;37.54;35.35;41.71;;
66463;Laerm;56827;52.178;4.500;2023-09-19T00:15:27;45.43;38.44;48.31;;
66463;Laerm;56827;52.178;4.500;2023-09-19T00:15:41;44.97;42.33;47.55;;
66463;Laerm;56827;52.178;4.500;2023-09-19T00:15:52;47.40;42.35;51.12;;
66463;Laerm;56827;52.178;4.500;2023-09-19T00:16:07;47.66;44.20;50.61;;
66463;Laerm;56827;52.178;4.500;2023-09-19T00:16:18;46.26;43.92;48.64;;
66463;Laerm;56827;52.178;4.500;2023-09-19T00:16:29;52.41;48.04;53.94;;
66463;Laerm;56827;52.178;4.500;2023-09-19T00:16:39;50.43;43.68;53.80;;
66463;Laerm;56827;52.178;4.500;2023-09-19T00:16:51;41.31;37.29;44.85;;
66463;Laerm;56827;52.178;4.500;2023-09-19T00:17:01;45.81;42.78;48.72;;
66463;Laerm;56827;52.178;4.500;2023-09-19T00:17:17;51.66;46.89;55.16;;
66463;Laerm;56827;52.178;4.500;2023-09-19T00:17:27;50.97;44.18;55.60;;
66463;Laerm;56827;52.178;4.500;2023-09-19T00:17:40;54.03;43.77;60.28;;
66463;Laerm;56827;52.178;4.500;2023-09-19T00:17:53;57.32;54.54;59.76;;
66463;Laerm;56827;52.178;4.500;2023-09-19T00:18:04;51.30;44.62;56.19;;
66463;Laerm;56827;52.178;4.500;2023-09-19T00:18:19;44.30;41.54;47.08;;
66463;Laerm;56827;52.178;4.500;2023-09-19T00:18:31;45.88;38.75;50.62;;
66463;Laerm;56827;52.178;4.500;2023-09-19T00:18:42;50.82;47.90;52.93;;
66463;Laerm;56827;52.178;4.500;2023-09-19T00:18:52;46.62;42.20;51.33;;
66463;Laerm;56827;52.178;4.500;2023-09-19T00:19:03;51.05;48.73;53.74;;
66463;Laerm;56827;52.178;4.500;2023-09-19T00:19:13;49.66;47.25;53.55;;
66463;Laerm;56827;52.178;4.500;2023-09-19T00:19:24;45.45;39.84;49.23;;
66463;Laerm;56827;52.178;4.500;2023-09-19T00:19:35;45.48;41.83;50.44;;
66463;Laerm;56827;52.178;4.500;2023-09-19T00:19:45;53.13;49.45;55.40;;
66463;Laerm;56827;52.178;4.500;2023-09-19T00:19:56;52.24;49.65;54.73;;
66463;Laerm;56827;52.178;4.500;2023-09-19T00:20:06;48.21;44.05;51.69;;
66463;Laerm;56827;52.178;4.500;2023-09-19T00:20:22;49.98;42.55;53.76;;
66463;Laerm;56827;52.178;4.500;2023-09-19T00:20:35;50.83;47.26;54.67;;
66463;Laerm;56827;52.178;4.500;2023-09-19T00:20:47;45.18;41.80;49.09;;
66463;Laerm;56827;52.178;4.500;2023-09-19T00:20:59;49.76;47.20;52.29;;
66463;Laerm;56827;52.178;4.500;2023-09-19T00:21:10;46.86;42.66;51.40;;
66463;Laerm;56827;52.178;4.500;2023-09-19T00:21:21;45.79;41.50;49.55;;
66463;Laerm;56827;52.178;4.500;2023-09-19T00:21:32;43.81;41.08;47.29;;
66463;Laerm;56827;52.178;4.500;2023-09-19T00:21:42;47.68;45.57;49.52;;
66463;Laerm;56827;52.178;4.500;2023-09-19T00:21:53;51.25;47.96;54.71;;
66463;Laerm;56827;52.178;4.500;2023-09-19T00:22:03;51.10;44.74;57.01;;
66463;Laerm;56827;52.178;4.500;2023-09-19T00:22:14;43.85;40.96;47.20;;
66463;Laerm;56827;52.178;4.500;2023-09-19T00:22:25;49.34;45.89;51.38;;
66463;Laerm;56827;52.178;4.500;2023-09-19T00:22:38;43.56;36.51;48.14;;
66463;Laerm;56827;52.178;4.500;2023-09-19T00:22:49;44.58;39.43;46.89;;
66463;Laerm;56827;52.178;4.500;2023-09-19T00:23:02;48.42;43.23;54.30;;
66463;Laerm;56827;52.178;4.500;2023-09-19T00:23:19;54.32;51.79;57.26;;
66463;Laerm;56827;52.178;4.500;2023-09-19T00:23:29;54.85;52.79;56.91;;
66463;Laerm;56827;52.178;4.500;2023-09-19T00:23:39;53.63;51.68;56.11;;
66463;Laerm;56827;52.178;4.500;2023-09-19T00:23:52;54.15;51.50;56.76;;
66463;Laerm;56827;52.178;4.500;2023-09-19T00:24:03;51.07;47.21;53.48;;
66463;Laerm;56827;52.178;4.500;2023-09-19T00:24:14;46.47;44.28;48.54;;
66463;Laerm;56827;52.178;4.500;2023-09-19T00:24:24;46.53;43.43;48.97;;
66463;Laerm;56827;52.178;4.500;2023-09-19T00:24:34;41.39;37.18;44.93;;
66463;Laerm;56827;52.178;4.500;2023-09-19T00:24:44;37.57;35.29;39.64;;
66463;Laerm;56827;52.178;4.500;2023-09-19T00:24:55;46.59;33.97;52.53;;
66463;Laerm;56827;52.178;4.500;2023-09-19T00:25:06;50.41;46.63;53.49;;
66463;Laerm;56827;52.178;4.500;2023-09-19T00:25:16;48.57;45.53;50.92;;
66463;Laerm;56827;52.178;4.500;2023-09-19T00:25:27;48.03;44.70;51.08;;
66463;Laerm;56827;52.178;4.500;2023-09-19T00:25:37;53.54;46.24;57.71;;
66463;Laerm;56827;52.178;4.500;2023-09-19T00:25:48;51.98;47.86;55.78;;
66463;Laerm;56827;52.178;4.500;2023-09-19T00:25:58;48.14;44.59;50.17;;
66463;Laerm;56827;52.178;4.500;2023-09-19T00:26:09;53.61;44.46;58.46;;
66463;Laerm;56827;52.178;4.500;2023-09-19T00:26:19;55.21;50.91;58.43;;
66463;Laerm;56827;52.178;4.500;2023-09-19T00:26:31;54.84;53.11;56.29;;
66463;Laerm;56827;52.178;4.500;2023-09-19T00:26:41;53.03;47.60;56.81;;
66463;Laerm;56827;52.178;4.500;2023-09-19T00:26:52;45.06;41.33;48.66;;
66463;Laerm;56827;52.178;4.500;2023-09-19T00:27:02;47.72;43.89;50.42;;
66463;Laerm;56827;52.178;4.500;2023-09-19T00:27:12;46.70;44.68;49.07;;
66463;Laerm;56827;52.178;4.500;2023-09-19T00:27:22;46.86;43.44;49.29;;
66463;Laerm;56827;52.178;4.500;2023-09-19T00:27:33;47.67;43.04;51.35;;
66463;Laerm;56827;52.178;4.500;2023-09-19T00:27:48;44.62;36.60;49.50;;
66463;Laerm;56827;52.178;4.500;2023-09-19T00:28:01;49.14;37.69;51.85;;
66463;Laerm;56827;52.178;4.500;2023-09-19T00:28:11;52.28;45.97;55.06;;
66463;Laerm;56827;52.178;4.500;2023-09-19T00:28:22;48.76;45.96;52.52;;
66463;Laerm;56827;52.178;4.500;2023-09-19T00:28:32;47.40;42.24;50.17;;
66463;Laerm;56827;52.178;4.500;2023-09-19T00:28:42;45.78;42.29;48.03;;
66463;Laerm;56827;52.178;4.500;2023-09-19T00:28:52;42.18;38.66;47.13;;
66463;Laerm;56827;52.178;4.500;2023-09-19T00:29:03;37.64;33.85;41.57;;
66463;Laerm;56827;52.178;4.500;2023-09-19T00:29:13;39.99;34.21;43.95;;
66463;Laerm;56827;52.178;4.500;2023-09-19T00:29:26;45.68;42.17;48.47;;
66463;Laerm;56827;52.178;4.500;2023-09-19T00:29:39;45.63;42.86;47.96;;
66463;Laerm;56827;52.178;4.500;2023-09-19T00:29:49;45.18;41.89;47.87;;
66463;Laerm;56827;52.178;4.500;2023-09-19T00:29:59;42.23;39.55;44.81;;
66463;Laerm;56827;52.178;4.500;2023-09-19T00:30:11;40.89;36.93;43.98;;
66463;Laerm;56827;52.178;4.500;2023-09-19T00:30:25;48.37;37.85;51.69;;
66463;Laerm;56827;52.178;4.500;2023-09-19T00:30:36;50.27;47.17;52.57;;
66463;Laerm;56827;52.178;4.500;2023-09-19T00:30:48;45.68;43.70;48.13;;
66463;Laerm;56827;52.178;4.500;2023-09-19T00:31:01;47.59;44.64;49.99;;
66463;Laerm;56827;52.178;4.500;2023-09-19T00:31:12;48.51;45.11;50.74;;
66463;Laerm;56827;52.178;4.500;2023-09-19T00:31:22;43.96;40.10;48.46;;
66463;Laerm;56827;52.178;4.500;2023-09-19T00:31:35;50.09;48.21;51.47;;
66463;Laerm;56827;52.178;4.500;2023-09-19T00:31:47;48.45;41.31;51.84;;
66463;Laerm;56827;52.178;4.500;2023-09-19T00:31:58;47.94;42.24;50.39;;
66463;Laerm;56827;52.178;4.500;2023-09-19T00:32:09;47.10;42.25;51.06;;
66463;Laerm;56827;52.178;4.500;2023-09-19T00:32:19;45.55;41.57;50.09;;
66463;Laerm;56827;52.178;4.500;2023-09-19T00:32:29;51.50;49.53;54.06;;
66463;Laerm;56827;52.178;4.500;2023-09-19T00:32:42;50.18;47.77;52.77;;
66463;Laerm;56827;52.178;4.500;2023-09-19T00:32:52;47.24;44.14;49.53;;
66463;Laerm;56827;52.178;4.500;2023-09-19T00:33:03;45.55;43.81;47.02;;
66463;Laerm;56827;52.178;4.500;2023-09-19T00:33:16;48.52;43.38;52.09;;
66463;Laerm;56827;52.178;4.500;2023-09-19T00:33:26;52.55;49.19;54.54;;
66463;Laerm;56827;52.178;4.500;2023-09-19T00:33:36;46.53;44.22;49.99;;
66463;Laerm;56827;52.178;4.500;2023-09-19T00:33:47;42.96;38.49;46.60;;
66463;Laerm;56827;52.178;4.500;2023-09-19T00:33:59;42.03;38.80;44.44;;
66463;Laerm;56827;52.178;4.500;2023-09-19T00:34:10;45.12;39.88;50.70;;
66463;Laerm;56827;52.178;4.500;2023-09-19T00:34:20;43.53;41.04;46.70;;
66463;Laerm;56827;52.178;4.500;2023-09-19T00:34:31;40.80;38.92;42.85;;
66463;Laerm;56827;52.178;4.500;2023-09-19T00:34:44;50.26;41.68;55.50;;
66463;Laerm;56827;52.178;4.500;2023-09-19T00:34:54;57.97;54.53;60.20;;
66463;Laerm;56827;52.178;4.500;2023-09-19T00:35:04;52.41;47.45;57.53;;
66463;Laerm;56827;52.178;4.500;2023-09-19T00:35:15;50.79;46.27;53.96;;
66463;Laerm;56827;52.178;4.500;2023-09-19T00:35:25;52.18;50.21;54.09;;
66463;Laerm;56827;52.178;4.500;2023-09-19T00:35:35;50.70;48.97;52.53;;
66463;Laerm;56827;52.178;4.500;2023-09-19T00:35:47;54.27;50.83;56.02;;
66463;Laerm;56827;52.178;4.500;2023-09-19T00:35:57;49.66;46.63;53.17;;
66463;Laerm;56827;52.178;4.500;2023-09-19T00:36:08;56.45;51.63;58.90;;
66463;Laerm;56827;52.178;4.500;2023-09-19T00:36:18;58.85;56.46;60.68;;
66463;Laerm;56827;52.178;4.500;2023-09-19T00:36:28;52.53;47.33;56.47;;
66463;Laerm;56827;52.178;4.500;2023-09-19T00:36:39;52.80;46.03;56.38;;
66463;Laerm;56827;52.178;4.500;2023-09-19T00:36:50;49.99;46.34;54.20;;
66463;Laerm;56827;52.178;4.500;2023-09-19T00:37:03;52.87;48.85;56.71;;
66463;Laerm;56827;52.178;4.500;2023-09-19T00:37:13;54.45;51.64;56.62;;
66463;Laerm;56827;52.178;4.500;2023-09-19T00:37:24;48.49;40.61;53.43;;
66463;Laerm;56827;52.178;4.500;2023-09-19T00:37:34;42.65;39.17;47.39;;
66463;Laerm;56827;52.178;4.500;2023-09-19T00:37:45;46.52;43.33;48.97;;
66463;Laerm;56827;52.178;4.500;2023-09-19T00:37:56;55.26;47.43;59.09;;
66463;Laerm;56827;52.178;4.500;2023-09-19T00:38:06;53.56;48.19;57.86;;
66463;Laerm;56827;52.178;4.500;2023-09-19T00:38:17;46.42;42.63;49.28;;
66463;Laerm;56827;52.178;4.500;2023-09-19T00:38:30;51.00;41.24;53.63;;
66463;Laerm;56827;52.178;4.500;2023-09-19T00:38:42;44.45;41.59;49.28;;
66463;Laerm;56827;52.178;4.500;2023-09-19T00:38:54;40.30;37.42;44.75;;
66463;Laerm;56827;52.178;4.500;2023-09-19T00:39:05;38.32;36.38;42.04;;
66463;Laerm;56827;52.178;4.500;2023-09-19T00:39:15;50.52;41.55;52.48;;
66463;Laerm;56827;52.178;4.500;2023-09-19T00:39:26;47.16;42.92;51.82;;
66463;Laerm;56827;52.178;4.500;2023-09-19T00:39:37;46.36;42.42;49.19;;
66463;Laerm;56827;52.178;4.500;2023-09-19T00:39:48;40.94;38.36;43.24;;
66463;Laerm;56827;52.178;4.500;2023-09-19T00:39:58;42.65;38.64;46.00;;
66463;Laerm;56827;52.178;4.500;2023-09-19T00:40:09;51.95;44.12;56.44;;
66463;Laerm;56827;52.178;4.500;2023-09-19T00:40:22;50.80;43.04;56.27;;
66463;Laerm;56827;52.178;4.500;2023-09-19T00:40:32;45.92;42.75;48.70;;
66463;Laerm;56827;52.178;4.500;2023-09-19T00:40:44;41.16;38.56;44.39;;
66463;Laerm;56827;52.178;4.500;2023-09-19T00:40:54;41.77;38.99;45.61;;
66463;Laerm;56827;52.178;4.500;2023-09-19T00:41:04;45.27;39.81;49.02;;
66463;Laerm;56827;52.178;4.500;2023-09-19T00:41:15;58.55;44.53;61.98;;
66463;Laerm;56827;52.178;4.500;2023-09-19T00:41:25;54.61;46.44;58.45;;
66463;Laerm;56827;52.178;4.500;2023-09-19T00:41:36;52.58;44.86;57.01;;
66463;Laerm;56827;52.178;4.500;2023-09-19T00:41:46;56.45;53.53;58.57;;
66463;Laerm;56827;52.178;4.500;2023-09-19T00:41:57;54.83;50.13;57.28;;
66463;Laerm;56827;52.178;4.500;2023-09-19T00:42:07;51.16;49.52;52.44;;
66463;Laerm;56827;52.178;4.500;2023-09-19T00:42:21;52.09;47.83;57.85;;
66463;Laerm;56827;52.178;4.500;2023-09-19T00:42:31;50.91;47.94;54.46;;
66463;Laerm;56827;52.178;4.500;2023-09-19T00:42:42;51.59;48.59;53.33;;
66463;Laerm;56827;52.178;4.500;2023-09-19T00:42:52;52.42;49.82;55.12;;
66463;Laerm;56827;52.178;4.500;2023-09-19T00:43:07;51.97;47.55;55.21;;
66463;Laerm;56827;52.178;4.500;2023-09-19T00:43:18;50.66;46.32;53.03;;
66463;Laerm;56827;52.178;4.500;2023-09-19T00:43:28;47.75;44.96;49.95;;
66463;Laerm;56827;52.178;4.500;2023-09-19T00:43:39;51.54;47.58;53.69;;
66463;Laerm;56827;52.178;4.500;2023-09-19T00:43:50;54.61;51.84;57.35;;
66463;Laerm;56827;52.178;4.500;2023-09-19T00:44:00;55.52;52.69;58.37;;
66463;Laerm;56827;52.178;4.500;2023-09-19T00:44:12;53.97;49.64;57.69;;
66463;Laerm;56827;52.178;4.500;2023-09-19T00:44:22;51.36;48.31;53.11;;
66463;Laerm;56827;52.178;4.500;2023-09-19T00:44:33;45.88;42.09;50.85;;
66463;Laerm;56827;52.178;4.500;2023-09-19T00:44:44;47.25;41.12;51.95;;
66463;Laerm;56827;52.178;4.500;2023-09-19T00:44:54;47.23;42.13;54.16;;
66463;Laerm;56827;52.178;4.500;2023-09-19T00:45:05;59.94;52.65;68.97;;
66463;Laerm;56827;52.178;4.500;2023-09-19T00:45:16;55.89;48.76;59.44;;
66463;Laerm;56827;52.178;4.500;2023-09-19T00:45:27;47.49;39.42;57.10;;
66463;Laerm;56827;52.178;4.500;2023-09-19T00:45:38;39.04;37.27;42.97;;
66463;Laerm;56827;52.178;4.500;2023-09-19T00:45:50;49.15;39.67;52.99;;
66463;Laerm;56827;52.178;4.500;2023-09-19T00:46:01;49.22;45.49;52.88;;
66463;Laerm;56827;52.178;4.500;2023-09-19T00:46:16;44.77;41.45;52.25;;
66463;Laerm;56827;52.178;4.500;2023-09-19T00:46:26;40.24;37.22;44.51;;
66463;Laerm;56827;52.178;4.500;2023-09-19T00:46:37;44.39;42.68;45.80;;
66463;Laerm;56827;52.178;4.500;2023-09-19T00:46:47;46.81;44.54;48.56;;
66463;Laerm;56827;52.178;4.500;2023-09-19T00:46:59;52.08;46.73;55.84;;
66463;Laerm;56827;52.178;4.500;2023-09-19T00:47:09;51.92;45.77;56.29;;
66463;Laerm;56827;52.178;4.500;2023-09-19T00:47:25;47.37;42.57;50.43;;
66463;Laerm;56827;52.178;4.500;2023-09-19T00:47:36;40.54;38.52;43.73;;
66463;Laerm;56827;52.178;4.500;2023-09-19T00:47:48;44.99;40.72;50.01;;
66463;Laerm;56827;52.178;4.500;2023-09-19T00:47:59;38.94;35.75;44.55;;
66463;Laerm;56827;52.178;4.500;2023-09-19T00:48:13;47.62;35.55;51.21;;
66463;Laerm;56827;52.178;4.500;2023-09-19T00:48:24;46.59;40.59;49.21;;
66463;Laerm;56827;52.178;4.500;2023-09-19T00:48:40;42.87;39.06;45.81;;
66463;Laerm;56827;52.178;4.500;2023-09-19T00:48:54;43.10;39.79;45.80;;
66463;Laerm;56827;52.178;4.500;2023-09-19T00:49:04;42.70;40.06;45.63;;
66463;Laerm;56827;52.178;4.500;2023-09-19T00:49:15;39.79;36.47;41.78;;
66463;Laerm;56827;52.178;4.500;2023-09-19T00:49:25;43.63;36.91;46.91;;
66463;Laerm;56827;52.178;4.500;2023-09-19T00:49:36;47.77;45.66;49.47;;
66463;Laerm;56827;52.178;4.500;2023-09-19T00:49:48;52.83;48.12;55.94;;
66463;Laerm;56827;52.178;4.500;2023-09-19T00:50:03;55.43;52.57;58.32;;
66463;Laerm;56827;52.178;4.500;2023-09-19T00:50:14;51.42;48.82;53.88;;
66463;Laerm;56827;52.178;4.500;2023-09-19T00:50:27;53.38;47.75;57.35;;
66463;Laerm;56827;52.178;4.500;2023-09-19T00:50:37;49.46;43.99;53.57;;
66463;Laerm;56827;52.178;4.500;2023-09-19T00:50:51;50.69;44.72;54.44;;
66463;Laerm;56827;52.178;4.500;2023-09-19T00:51:03;49.41;45.08;52.05;;
66463;Laerm;56827;52.178;4.500;2023-09-19T00:51:14;50.08;45.21;53.44;;
66463;Laerm;56827;52.178;4.500;2023-09-19T00:51:28;48.70;43.55;52.83;;
66463;Laerm;56827;52.178;4.500;2023-09-19T00:51:39;54.82;50.89;57.60;;
66463;Laerm;56827;52.178;4.500;2023-09-19T00:51:52;53.58;47.25;56.93;;
66463;Laerm;56827;52.178;4.500;2023-09-19T00:52:02;50.02;45.67;53.11;;
66463;Laerm;56827;52.178;4.500;2023-09-19T00:52:14;49.86;40.06;52.81;;
66463;Laerm;56827;52.178;4.500;2023-09-19T00:52:25;38.50;35.73;44.29;;
66463;Laerm;56827;52.178;4.500;2023-09-19T00:52:37;36.76;34.96;38.64;;
66463;Laerm;56827;52.178;4.500;2023-09-19T00:52:48;45.00;35.43;60.08;;
66463;Laerm;56827;52.178;4.500;2023-09-19T00:53:00;50.38;44.62;61.86;;
66463;Laerm;56827;52.178;4.500;2023-09-19T00:53:12;49.86;44.81;59.34;;
66463;Laerm;56827;52.178;4.500;2023-09-19T00:53:23;52.02;45.69;59.09;;
66463;Laerm;56827;52.178;4.500;2023-09-19T00:53:37;48.40;42.06;56.13;;
66463;Laerm;56827;52.178;4.500;2023-09-19T00:53:48;44.99;40.40;55.92;;
66463;Laerm;56827;52.178;4.500;2023-09-19T00:53:59;46.59;42.18;55.64;;
66463;Laerm;56827;52.178;4.500;2023-09-19T00:54:09;44.04;39.07;52.32;;
66463;Laerm;56827;52.178;4.500;2023-09-19T00:54:19;48.75;44.80;58.57;;
66463;Laerm;56827;52.178;4.500;2023-09-19T00:54:29;47.55;44.82;50.16;;
66463;Laerm;56827;52.178;4.500;2023-09-19T00:54:40;51.01;43.01;55.51;;
66463;Laerm;56827;52.178;4.500;2023-09-19T00:54:50;53.83;49.81;57.01;;
66463;Laerm;56827;52.178;4.500;2023-09-19T00:55:02;48.94;40.63;52.95;;
66463;Laerm;56827;52.178;4.500;2023-09-19T00:55:12;42.14;38.39;44.46;;
66463;Laerm;56827;52.178;4.500;2023-09-19T00:55:24;41.45;39.73;43.04;;
66463;Laerm;56827;52.178;4.500;2023-09-19T00:55:35;42.63;39.94;46.50;;
66463;Laerm;56827;52.178;4.500;2023-09-19T00:55:47;52.61;45.65;55.85;;
66463;Laerm;56827;52.178;4.500;2023-09-19T00:55:58;50.61;47.90;53.04;;
66463;Laerm;56827;52.178;4.500;2023-09-19T00:56:08;48.55;42.98;53.17;;
66463;Laerm;56827;52.178;4.500;2023-09-19T00:56:19;45.89;43.39;48.11;;
66463;Laerm;56827;52.178;4.500;2023-09-19T00:56:30;49.49;45.05;52.36;;
66463;Laerm;56827;52.178;4.500;2023-09-19T00:56:41;45.70;42.29;49.83;;
66463;Laerm;56827;52.178;4.500;2023-09-19T00:56:52;40.04;37.33;43.72;;
66463;Laerm;56827;52.178;4.500;2023-09-19T00:57:04;40.42;36.31;45.04;;
66463;Laerm;56827;52.178;4.500;2023-09-19T00:57:14;43.75;41.20;45.81;;
66463;Laerm;56827;52.178;4.500;2023-09-19T00:57:25;48.85;42.56;51.42;;
66463;Laerm;56827;52.178;4.500;2023-09-19T00:57:37;49.36;41.53;54.23;;
66463;Laerm;56827;52.178;4.500;2023-09-19T00:57:48;47.59;41.42;51.39;;
66463;Laerm;56827;52.178;4.500;2023-09-19T00:58:00;45.04;41.69;49.18;;
66463;Laerm;56827;52.178;4.500;2023-09-19T00:58:10;43.63;40.03;47.87;;
66463;Laerm;56827;52.178;4.500;2023-09-19T00:58:21;41.26;39.31;42.97;;
66463;Laerm;56827;52.178;4.500;2023-09-19T00:58:31;48.33;39.85;51.06;;
66463;Laerm;56827;52.178;4.500;2023-09-19T00:58:44;45.52;41.42;49.95;;
66463;Laerm;56827;52.178;4.500;2023-09-19T00:58:54;48.52;40.93;52.26;;
66463;Laerm;56827;52.178;4.500;2023-09-19T00:59:05;50.12;45.30;57.17;;
66463;Laerm;56827;52.178;4.500;2023-09-19T00:59:15;47.31;44.79;49.38;;
66463;Laerm;56827;52.178;4.500;2023-09-19T00:59:27;52.65;47.10;54.71;;
66463;Laerm;56827;52.178;4.500;2023-09-19T00:59:37;52.15;44.46;55.61;;
66463;Laerm;56827;52.178;4.500;2023-09-19T00:59:48;46.89;42.17;52.99;;
66463;Laerm;56827;52.178;4.500;2023-09-19T01:00:00;53.69;51.36;56.56;;
66463;Laerm;56827;52.178;4.500;2023-09-19T01:00:10;53.68;50.90;56.10;;
66463;Laerm;56827;52.178;4.500;2023-09-19T01:00:25;54.88;53.18;56.58;;
66463;Laerm;56827;52.178;4.500;2023-09-19T01:00:35;59.00;52.81;65.15;;
66463;Laerm;56827;52.178;4.500;2023-09-19T01:00:47;62.51;58.11;69.47;;
66463;Laerm;56827;52.178;4.500;2023-09-19T01:00:57;58.80;56.00;61.14;;
66463;Laerm;56827;52.178;4.500;2023-09-19T01:01:08;56.09;53.43;58.51;;
66463;Laerm;56827;52.178;4.500;2023-09-19T01:01:18;54.55;50.32;58.19;;
66463;Laerm;56827;52.178;4.500;2023-09-19T01:01:29;54.09;49.40;58.39;;
66463;Laerm;56827;52.178;4.500;2023-09-19T01:01:39;50.92;48.46;54.55;;
66463;Laerm;56827;52.178;4.500;2023-09-19T01:01:50;51.26;45.98;55.18;;
66463;Laerm;56827;52.178;4.500;2023-09-19T01:02:04;51.01;46.90;58.04;;
66463;Laerm;56827;52.178;4.500;2023-09-19T01:02:14;56.75;52.28;59.42;;
66463;Laerm;56827;52.178;4.500;2023-09-19T01:02:26;51.34;46.87;55.66;;
66463;Laerm;56827;52.178;4.500;2023-09-19T01:02:40;54.27;49.38;58.16;;
66463;Laerm;56827;52.178;4.500;2023-09-19T01:02:51;49.44;46.77;52.11;;
66463;Laerm;56827;52.178;4.500;2023-09-19T01:03:04;53.55;48.09;56.13;;
66463;Laerm;56827;52.178;4.500;2023-09-19T01:03:17;49.21;46.67;51.75;;
66463;Laerm;56827;52.178;4.500;2023-09-19T01:03:28;53.98;48.38;58.18;;